Country
Station

 

Weather  for  Johan A. Pengel  -  Suriname    Suriname

  
23 °C (73 °F)
    
 
 

Current METAR for Johan A. Pengel is :

SMJP 171000Z 19002KT 2000 BR FEW003 23/23 Q1014 TEMPO 0800 FG

 

This is a report for Johan A. Pengel - Suriname.
 
The report was made one hour and 20 minutes ago, at 10:00 UTC .
The wind was blowing at a speed of 1.0 meters per second (2.3 miles per hour) from south (190°).
 
The temperature was 23 °C (73 °F), with a dew-point at 23 °C (73 °F).
The temperature felt like 20 °C (68 °F).
 
The atmospheric pressure was 1014 hPa (29.94 inHg).
The relative humidity was 100.0%.
 
There were a few clouds at a height of 91 meters (300 feet).
 
The overall visibility was 2000 meter (6562 feet).
 
Currently mist.

 
 
 
 

Country :   A   B   C   D   E   F   G   H   I   J   K   L   M   N   O   P   Q   R   S   T   U   V   W   Y   Z

 

Site Info  |  Disclaimer  |  Credits  |  Privacy
Contact us  |  Add to favorites
© 2013-2018 METARs - All rights reserved